createdAt,value
2024-01-09T00:01:32.933Z,85570.67
2024-01-09T00:09:57.252Z,85468.08
2024-01-09T00:18:51.342Z,85396.00
2024-01-09T00:27:48.651Z,85375.05
2024-01-09T00:36:26.322Z,85354.10
2024-01-09T00:45:09.471Z,85328.66
2024-01-09T00:54:00.000Z,85325.08
2024-01-09T01:03:23.118Z,85320.21
2024-01-09T01:12:19.105Z,85309.32
2024-01-09T01:21:44.888Z,85301.20
2024-01-09T01:31:01.348Z,85293.85
2024-01-09T01:40:37.209Z,85257.27
2024-01-09T01:49:39.106Z,85217.71
2024-01-09T02:07:51.914Z,85232.81
2024-01-09T02:16:20.537Z,85259.73
2024-01-09T02:34:22.540Z,85142.08
2024-01-09T02:43:50.199Z,85058.79
2024-01-09T02:53:07.653Z,85044.51
2024-01-09T03:01:35.655Z,85017.58
2024-01-09T03:10:21.670Z,84976.39
2024-01-09T03:18:50.031Z,84978.89
2024-01-09T03:27:14.339Z,84997.66
2024-01-09T03:35:38.311Z,85045.35
2024-01-09T03:44:06.427Z,85086.95
2024-01-09T03:52:34.361Z,85123.23
2024-01-09T04:00:58.344Z,85153.50
2024-01-09T04:18:32.105Z,85223.44
2024-01-09T04:27:04.386Z,85234.75
2024-01-09T04:35:32.058Z,85194.64
2024-01-09T04:43:58.007Z,85126.91
2024-01-09T04:52:27.148Z,85057.50
2024-01-09T05:00:59.037Z,85036.88
2024-01-09T05:09:24.762Z,85037.18
2024-01-09T05:17:52.474Z,85055.80
2024-01-09T05:26:22.157Z,85091.91
2024-01-09T05:34:54.482Z,85070.73
2024-01-09T05:43:35.117Z,85036.05
2024-01-09T05:52:02.680Z,85042.19
2024-01-09T06:00:26.925Z,85044.19
2024-01-09T06:09:26.599Z,85085.73
2024-01-09T06:18:09.894Z,85100.64
2024-01-09T06:27:10.210Z,85136.28
2024-01-09T06:35:54.990Z,85162.02
2024-01-09T06:44:43.242Z,85164.55
2024-01-09T07:03:30.854Z,85197.79
